sensor_id;sensor_type;location;lat;lon;timestamp;P1;durP1;ratioP1;P2;durP2;ratioP2
31126;SDS011;17775;57.948;12.514;2024-03-08T00:00:06;0.32;;;0.32;;
31126;SDS011;17775;57.948;12.514;2024-03-08T00:02:36;0.40;;;0.40;;
31126;SDS011;17775;57.948;12.514;2024-03-08T00:05:04;0.38;;;0.38;;
31126;SDS011;17775;57.948;12.514;2024-03-08T00:07:30;0.30;;;0.30;;
31126;SDS011;17775;57.948;12.514;2024-03-08T00:09:57;0.40;;;0.40;;
31126;SDS011;17775;57.948;12.514;2024-03-08T00:12:23;0.60;;;0.40;;
31126;SDS011;17775;57.948;12.514;2024-03-08T00:14:52;0.50;;;0.40;;
31126;SDS011;17775;57.948;12.514;2024-03-08T00:17:19;0.40;;;0.40;;
31126;SDS011;17775;57.948;12.514;2024-03-08T00:19:45;0.50;;;0.50;;
31126;SDS011;17775;57.948;12.514;2024-03-08T00:22:11;0.82;;;0.50;;
31126;SDS011;17775;57.948;12.514;2024-03-08T00:24:38;0.40;;;0.40;;
31126;SDS011;17775;57.948;12.514;2024-03-08T00:27:04;0.65;;;0.50;;
31126;SDS011;17775;57.948;12.514;2024-03-08T00:29:32;0.50;;;0.40;;
31126;SDS011;17775;57.948;12.514;2024-03-08T00:31:58;0.40;;;0.40;;
31126;SDS011;17775;57.948;12.514;2024-03-08T00:34:25;0.40;;;0.40;;
31126;SDS011;17775;57.948;12.514;2024-03-08T00:36:51;0.38;;;0.38;;
31126;SDS011;17775;57.948;12.514;2024-03-08T00:39:18;0.40;;;0.40;;
31126;SDS011;17775;57.948;12.514;2024-03-08T00:41:48;0.30;;;0.30;;
31126;SDS011;17775;57.948;12.514;2024-03-08T00:44:14;0.43;;;0.40;;
31126;SDS011;17775;57.948;12.514;2024-03-08T00:46:44;0.32;;;0.32;;
31126;SDS011;17775;57.948;12.514;2024-03-08T00:49:10;0.40;;;0.40;;
31126;SDS011;17775;57.948;12.514;2024-03-08T00:51:38;0.40;;;0.40;;
31126;SDS011;17775;57.948;12.514;2024-03-08T00:54:05;0.43;;;0.40;;
31126;SDS011;17775;57.948;12.514;2024-03-08T00:56:31;0.47;;;0.47;;
31126;SDS011;17775;57.948;12.514;2024-03-08T00:59:00;0.40;;;0.40;;
31126;SDS011;17775;57.948;12.514;2024-03-08T01:01:26;0.57;;;0.40;;
31126;SDS011;17775;57.948;12.514;2024-03-08T01:03:55;0.35;;;0.35;;
31126;SDS011;17775;57.948;12.514;2024-03-08T01:06:23;0.40;;;0.40;;
31126;SDS011;17775;57.948;12.514;2024-03-08T01:08:50;0.40;;;0.40;;
31126;SDS011;17775;57.948;12.514;2024-03-08T01:11:18;0.30;;;0.30;;
31126;SDS011;17775;57.948;12.514;2024-03-08T01:13:45;0.40;;;0.40;;
31126;SDS011;17775;57.948;12.514;2024-03-08T01:16:13;0.52;;;0.40;;
31126;SDS011;17775;57.948;12.514;2024-03-08T01:18:42;0.43;;;0.40;;
31126;SDS011;17775;57.948;12.514;2024-03-08T01:21:09;0.30;;;0.30;;
31126;SDS011;17775;57.948;12.514;2024-03-08T01:23:36;0.40;;;0.40;;
31126;SDS011;17775;57.948;12.514;2024-03-08T01:26:02;0.40;;;0.40;;
31126;SDS011;17775;57.948;12.514;2024-03-08T01:28:29;0.40;;;0.40;;
31126;SDS011;17775;57.948;12.514;2024-03-08T01:30:56;0.38;;;0.38;;
31126;SDS011;17775;57.948;12.514;2024-03-08T01:33:26;0.90;;;0.50;;
31126;SDS011;17775;57.948;12.514;2024-03-08T01:35:53;0.40;;;0.40;;
31126;SDS011;17775;57.948;12.514;2024-03-08T01:38:19;0.30;;;0.30;;
31126;SDS011;17775;57.948;12.514;2024-03-08T01:40:49;0.68;;;0.50;;
31126;SDS011;17775;57.948;12.514;2024-03-08T01:43:24;0.40;;;0.40;;
31126;SDS011;17775;57.948;12.514;2024-03-08T01:45:51;0.40;;;0.40;;
31126;SDS011;17775;57.948;12.514;2024-03-08T01:48:20;0.32;;;0.32;;
31126;SDS011;17775;57.948;12.514;2024-03-08T01:50:50;0.32;;;0.32;;
31126;SDS011;17775;57.948;12.514;2024-03-08T01:53:18;0.47;;;0.40;;
31126;SDS011;17775;57.948;12.514;2024-03-08T01:55:45;0.65;;;0.38;;
31126;SDS011;17775;57.948;12.514;2024-03-08T01:58:12;0.50;;;0.50;;
31126;SDS011;17775;57.948;12.514;2024-03-08T02:00:44;0.43;;;0.43;;
31126;SDS011;17775;57.948;12.514;2024-03-08T02:03:12;0.40;;;0.40;;
31126;SDS011;17775;57.948;12.514;2024-03-08T02:05:40;0.35;;;0.35;;
31126;SDS011;17775;57.948;12.514;2024-03-08T02:08:07;0.40;;;0.40;;
31126;SDS011;17775;57.948;12.514;2024-03-08T02:10:34;0.55;;;0.45;;
31126;SDS011;17775;57.948;12.514;2024-03-08T02:13:04;0.40;;;0.40;;
31126;SDS011;17775;57.948;12.514;2024-03-08T02:18:15;0.30;;;0.30;;
31126;SDS011;17775;57.948;12.514;2024-03-08T02:20:43;0.45;;;0.40;;
31126;SDS011;17775;57.948;12.514;2024-03-08T02:23:10;0.60;;;0.40;;
31126;SDS011;17775;57.948;12.514;2024-03-08T02:25:36;0.40;;;0.40;;
31126;SDS011;17775;57.948;12.514;2024-03-08T02:28:03;0.40;;;0.40;;
31126;SDS011;17775;57.948;12.514;2024-03-08T02:30:30;0.65;;;0.47;;
31126;SDS011;17775;57.948;12.514;2024-03-08T02:32:56;0.30;;;0.30;;
31126;SDS011;17775;57.948;12.514;2024-03-08T02:35:24;0.40;;;0.40;;
31126;SDS011;17775;57.948;12.514;2024-03-08T02:37:50;0.40;;;0.40;;
31126;SDS011;17775;57.948;12.514;2024-03-08T02:40:16;0.38;;;0.38;;
31126;SDS011;17775;57.948;12.514;2024-03-08T02:42:43;0.40;;;0.40;;
31126;SDS011;17775;57.948;12.514;2024-03-08T02:45:11;0.60;;;0.50;;
31126;SDS011;17775;57.948;12.514;2024-03-08T02:47:38;0.47;;;0.40;;
31126;SDS011;17775;57.948;12.514;2024-03-08T02:50:05;0.52;;;0.40;;
31126;SDS011;17775;57.948;12.514;2024-03-08T02:52:34;0.55;;;0.45;;
31126;SDS011;17775;57.948;12.514;2024-03-08T02:55:01;0.40;;;0.40;;
31126;SDS011;17775;57.948;12.514;2024-03-08T02:57:28;0.60;;;0.50;;
31126;SDS011;17775;57.948;12.514;2024-03-08T02:59:57;0.40;;;0.40;;
31126;SDS011;17775;57.948;12.514;2024-03-08T03:02:25;0.38;;;0.38;;
31126;SDS011;17775;57.948;12.514;2024-03-08T03:04:52;0.40;;;0.40;;
31126;SDS011;17775;57.948;12.514;2024-03-08T03:07:19;0.50;;;0.50;;
31126;SDS011;17775;57.948;12.514;2024-03-08T03:09:46;0.68;;;0.63;;
31126;SDS011;17775;57.948;12.514;2024-03-08T03:12:12;0.32;;;0.32;;
31126;SDS011;17775;57.948;12.514;2024-03-08T03:14:40;0.40;;;0.40;;
31126;SDS011;17775;57.948;12.514;2024-03-08T03:17:09;0.40;;;0.40;;
31126;SDS011;17775;57.948;12.514;2024-03-08T03:19:36;0.60;;;0.50;;
31126;SDS011;17775;57.948;12.514;2024-03-08T03:22:02;0.38;;;0.38;;
31126;SDS011;17775;57.948;12.514;2024-03-08T03:24:29;0.75;;;0.40;;
31126;SDS011;17775;57.948;12.514;2024-03-08T03:26:56;0.47;;;0.47;;
31126;SDS011;17775;57.948;12.514;2024-03-08T03:29:22;0.60;;;0.50;;
31126;SDS011;17775;57.948;12.514;2024-03-08T03:31:48;1.00;;;0.50;;
31126;SDS011;17775;57.948;12.514;2024-03-08T03:34:15;1.05;;;0.55;;
31126;SDS011;17775;57.948;12.514;2024-03-08T03:36:41;0.88;;;0.60;;
31126;SDS011;17775;57.948;12.514;2024-03-08T03:39:09;0.95;;;0.70;;
31126;SDS011;17775;57.948;12.514;2024-03-08T03:41:46;0.68;;;0.60;;
31126;SDS011;17775;57.948;12.514;2024-03-08T03:44:13;0.77;;;0.60;;
31126;SDS011;17775;57.948;12.514;2024-03-08T03:46:42;0.65;;;0.65;;
31126;SDS011;17775;57.948;12.514;2024-03-08T03:49:12;0.70;;;0.50;;
31126;SDS011;17775;57.948;12.514;2024-03-08T03:51:38;0.75;;;0.52;;
31126;SDS011;17775;57.948;12.514;2024-03-08T03:54:05;0.50;;;0.47;;
31126;SDS011;17775;57.948;12.514;2024-03-08T03:56:31;0.60;;;0.57;;
31126;SDS011;17775;57.948;12.514;2024-03-08T03:58:58;1.23;;;0.52;;
31126;SDS011;17775;57.948;12.514;2024-03-08T04:01:24;0.70;;;0.52;;
31126;SDS011;17775;57.948;12.514;2024-03-08T04:03:51;0.47;;;0.45;;
31126;SDS011;17775;57.948;12.514;2024-03-08T04:06:18;0.50;;;0.43;;
31126;SDS011;17775;57.948;12.514;2024-03-08T04:08:44;0.40;;;0.40;;
31126;SDS011;17775;57.948;12.514;2024-03-08T04:11:11;0.73;;;0.50;;
31126;SDS011;17775;57.948;12.514;2024-03-08T04:13:37;0.38;;;0.38;;
31126;SDS011;17775;57.948;12.514;2024-03-08T04:16:04;0.80;;;0.50;;
31126;SDS011;17775;57.948;12.514;2024-03-08T04:18:34;0.70;;;0.60;;
31126;SDS011;17775;57.948;12.514;2024-03-08T04:21:02;0.40;;;0.40;;
31126;SDS011;17775;57.948;12.514;2024-03-08T04:23:29;0.40;;;0.40;;
31126;SDS011;17775;57.948;12.514;2024-03-08T04:25:55;0.55;;;0.47;;
31126;SDS011;17775;57.948;12.514;2024-03-08T04:28:22;0.98;;;0.57;;
31126;SDS011;17775;57.948;12.514;2024-03-08T04:30:48;0.60;;;0.50;;
31126;SDS011;17775;57.948;12.514;2024-03-08T04:33:16;0.63;;;0.50;;
31126;SDS011;17775;57.948;12.514;2024-03-08T04:35:45;0.40;;;0.40;;
31126;SDS011;17775;57.948;12.514;2024-03-08T04:38:12;0.40;;;0.40;;
31126;SDS011;17775;57.948;12.514;2024-03-08T04:40:38;0.60;;;0.50;;
31126;SDS011;17775;57.948;12.514;2024-03-08T04:43:08;0.45;;;0.40;;
31126;SDS011;17775;57.948;12.514;2024-03-08T04:45:35;0.40;;;0.40;;
31126;SDS011;17775;57.948;12.514;2024-03-08T04:48:01;0.50;;;0.40;;
31126;SDS011;17775;57.948;12.514;2024-03-08T04:50:28;0.55;;;0.47;;
31126;SDS011;17775;57.948;12.514;2024-03-08T04:52:55;1.13;;;0.60;;
31126;SDS011;17775;57.948;12.514;2024-03-08T04:55:22;0.43;;;0.43;;
31126;SDS011;17775;57.948;12.514;2024-03-08T04:57:49;0.70;;;0.60;;
31126;SDS011;17775;57.948;12.514;2024-03-08T05:00:15;0.93;;;0.57;;
31126;SDS011;17775;57.948;12.514;2024-03-08T05:02:44;1.40;;;0.50;;
31126;SDS011;17775;57.948;12.514;2024-03-08T05:05:11;0.95;;;0.60;;
31126;SDS011;17775;57.948;12.514;2024-03-08T05:07:39;0.40;;;0.40;;
31126;SDS011;17775;57.948;12.514;2024-03-08T05:10:06;0.65;;;0.55;;
31126;SDS011;17775;57.948;12.514;2024-03-08T05:12:33;0.60;;;0.50;;
31126;SDS011;17775;57.948;12.514;2024-03-08T05:14:59;1.08;;;0.45;;
31126;SDS011;17775;57.948;12.514;2024-03-08T05:17:26;0.40;;;0.40;;
31126;SDS011;17775;57.948;12.514;2024-03-08T05:19:56;0.70;;;0.60;;
31126;SDS011;17775;57.948;12.514;2024-03-08T05:22:24;0.68;;;0.50;;
31126;SDS011;17775;57.948;12.514;2024-03-08T05:24:52;0.50;;;0.50;;
31126;SDS011;17775;57.948;12.514;2024-03-08T05:27:18;0.45;;;0.45;;
31126;SDS011;17775;57.948;12.514;2024-03-08T05:29:45;0.40;;;0.40;;
31126;SDS011;17775;57.948;12.514;2024-03-08T05:32:12;0.43;;;0.40;;
31126;SDS011;17775;57.948;12.514;2024-03-08T05:34:39;1.10;;;0.80;;
31126;SDS011;17775;57.948;12.514;2024-03-08T05:37:07;0.52;;;0.50;;
31126;SDS011;17775;57.948;12.514;2024-03-08T05:39:34;0.50;;;0.50;;
31126;SDS011;17775;57.948;12.514;2024-03-08T05:42:00;0.40;;;0.40;;
31126;SDS011;17775;57.948;12.514;2024-03-08T05:44:27;0.47;;;0.43;;
31126;SDS011;17775;57.948;12.514;2024-03-08T05:46:55;0.50;;;0.40;;
31126;SDS011;17775;57.948;12.514;2024-03-08T05:49:22;0.40;;;0.40;;
31126;SDS011;17775;57.948;12.514;2024-03-08T05:51:48;0.43;;;0.40;;
31126;SDS011;17775;57.948;12.514;2024-03-08T05:54:17;0.40;;;0.40;;
31126;SDS011;17775;57.948;12.514;2024-03-08T05:56:47;0.50;;;0.50;;
31126;SDS011;17775;57.948;12.514;2024-03-08T05:59:14;0.43;;;0.40;;
31126;SDS011;17775;57.948;12.514;2024-03-08T06:01:41;0.40;;;0.40;;
31126;SDS011;17775;57.948;12.514;2024-03-08T06:04:09;0.63;;;0.40;;
31126;SDS011;17775;57.948;12.514;2024-03-08T06:06:38;0.40;;;0.35;;
31126;SDS011;17775;57.948;12.514;2024-03-08T06:09:04;0.45;;;0.45;;
31126;SDS011;17775;57.948;12.514;2024-03-08T06:11:37;0.52;;;0.50;;
31126;SDS011;17775;57.948;12.514;2024-03-08T06:14:04;0.50;;;0.50;;
31126;SDS011;17775;57.948;12.514;2024-03-08T06:16:32;0.40;;;0.40;;
31126;SDS011;17775;57.948;12.514;2024-03-08T06:19:00;0.47;;;0.47;;
31126;SDS011;17775;57.948;12.514;2024-03-08T06:21:28;0.63;;;0.47;;
31126;SDS011;17775;57.948;12.514;2024-03-08T06:23:54;0.45;;;0.45;;
31126;SDS011;17775;57.948;12.514;2024-03-08T06:26:21;0.40;;;0.40;;
31126;SDS011;17775;57.948;12.514;2024-03-08T06:28:55;0.40;;;0.40;;
31126;SDS011;17775;57.948;12.514;2024-03-08T06:31:22;0.40;;;0.40;;
31126;SDS011;17775;57.948;12.514;2024-03-08T06:33:48;0.45;;;0.45;;
31126;SDS011;17775;57.948;12.514;2024-03-08T06:36:21;0.63;;;0.55;;
31126;SDS011;17775;57.948;12.514;2024-03-08T06:38:50;0.50;;;0.50;;
31126;SDS011;17775;57.948;12.514;2024-03-08T06:41:17;0.50;;;0.50;;
31126;SDS011;17775;57.948;12.514;2024-03-08T06:43:44;0.55;;;0.45;;
31126;SDS011;17775;57.948;12.514;2024-03-08T06:46:11;0.57;;;0.40;;
31126;SDS011;17775;57.948;12.514;2024-03-08T06:48:40;0.40;;;0.40;;
31126;SDS011;17775;57.948;12.514;2024-03-08T06:51:07;0.70;;;0.40;;
31126;SDS011;17775;57.948;12.514;2024-03-08T06:53:34;0.40;;;0.40;;
31126;SDS011;17775;57.948;12.514;2024-03-08T06:56:05;0.77;;;0.50;;
31126;SDS011;17775;57.948;12.514;2024-03-08T06:58:31;0.40;;;0.40;;
31126;SDS011;17775;57.948;12.514;2024-03-08T07:00:59;0.73;;;0.40;;
31126;SDS011;17775;57.948;12.514;2024-03-08T07:03:27;0.90;;;0.52;;
31126;SDS011;17775;57.948;12.514;2024-03-08T07:05:56;0.82;;;0.50;;
31126;SDS011;17775;57.948;12.514;2024-03-08T07:08:28;0.50;;;0.50;;
31126;SDS011;17775;57.948;12.514;2024-03-08T07:10:54;0.60;;;0.50;;
31126;SDS011;17775;57.948;12.514;2024-03-08T07:13:21;0.50;;;0.50;;
31126;SDS011;17775;57.948;12.514;2024-03-08T07:15:47;1.10;;;0.57;;
31126;SDS011;17775;57.948;12.514;2024-03-08T07:18:14;1.10;;;0.60;;
31126;SDS011;17775;57.948;12.514;2024-03-08T07:20:44;0.85;;;0.70;;
31126;SDS011;17775;57.948;12.514;2024-03-08T07:23:11;0.60;;;0.50;;
31126;SDS011;17775;57.948;12.514;2024-03-08T07:25:59;0.50;;;0.50;;
31126;SDS011;17775;57.948;12.514;2024-03-08T07:28:27;0.70;;;0.60;;
31126;SDS011;17775;57.948;12.514;2024-03-08T07:30:57;0.52;;;0.50;;
31126;SDS011;17775;57.948;12.514;2024-03-08T07:33:38;0.50;;;0.43;;
31126;SDS011;17775;57.948;12.514;2024-03-08T07:36:05;0.50;;;0.50;;
31126;SDS011;17775;57.948;12.514;2024-03-08T07:38:31;0.47;;;0.40;;
31126;SDS011;17775;57.948;12.514;2024-03-08T07:40:58;0.77;;;0.40;;
31126;SDS011;17775;57.948;12.514;2024-03-08T07:43:25;0.40;;;0.40;;
31126;SDS011;17775;57.948;12.514;2024-03-08T07:45:51;0.40;;;0.40;;
31126;SDS011;17775;57.948;12.514;2024-03-08T07:48:19;0.40;;;0.40;;
31126;SDS011;17775;57.948;12.514;2024-03-08T07:50:49;0.40;;;0.40;;
31126;SDS011;17775;57.948;12.514;2024-03-08T07:53:16;0.30;;;0.30;;
31126;SDS011;17775;57.948;12.514;2024-03-08T07:55:42;0.47;;;0.40;;
31126;SDS011;17775;57.948;12.514;2024-03-08T07:58:10;0.45;;;0.40;;
31126;SDS011;17775;57.948;12.514;2024-03-08T08:00:37;0.40;;;0.40;;
31126;SDS011;17775;57.948;12.514;2024-03-08T08:03:04;0.47;;;0.40;;
31126;SDS011;17775;57.948;12.514;2024-03-08T08:05:31;0.85;;;0.50;;
31126;SDS011;17775;57.948;12.514;2024-03-08T08:10:29;0.40;;;0.40;;
31126;SDS011;17775;57.948;12.514;2024-03-08T08:12:55;0.47;;;0.40;;
31126;SDS011;17775;57.948;12.514;2024-03-08T08:15:23;0.30;;;0.30;;
31126;SDS011;17775;57.948;12.514;2024-03-08T08:17:49;0.40;;;0.40;;
31126;SDS011;17775;57.948;12.514;2024-03-08T08:20:18;0.40;;;0.40;;
31126;SDS011;17775;57.948;12.514;2024-03-08T08:22:45;0.50;;;0.30;;
31126;SDS011;17775;57.948;12.514;2024-03-08T08:25:12;0.40;;;0.40;;
31126;SDS011;17775;57.948;12.514;2024-03-08T08:27:39;0.30;;;0.30;;
31126;SDS011;17775;57.948;12.514;2024-03-08T08:30:06;0.65;;;0.35;;
31126;SDS011;17775;57.948;12.514;2024-03-08T08:32:35;0.63;;;0.43;;
31126;SDS011;17775;57.948;12.514;2024-03-08T08:35:13;0.70;;;0.65;;
31126;SDS011;17775;57.948;12.514;2024-03-08T08:37:40;1.37;;;1.00;;
31126;SDS011;17775;57.948;12.514;2024-03-08T08:40:07;1.92;;;1.20;;
31126;SDS011;17775;57.948;12.514;2024-03-08T08:42:36;1.98;;;1.13;;
31126;SDS011;17775;57.948;12.514;2024-03-08T08:45:05;1.52;;;1.10;;
31126;SDS011;17775;57.948;12.514;2024-03-08T08:47:42;1.90;;;1.17;;
31126;SDS011;17775;57.948;12.514;2024-03-08T08:50:09;2.00;;;1.17;;
31126;SDS011;17775;57.948;12.514;2024-03-08T08:52:38;1.60;;;1.10;;
31126;SDS011;17775;57.948;12.514;2024-03-08T08:55:06;1.80;;;1.20;;
31126;SDS011;17775;57.948;12.514;2024-03-08T08:57:32;1.95;;;1.15;;
31126;SDS011;17775;57.948;12.514;2024-03-08T08:59:59;2.03;;;1.40;;
31126;SDS011;17775;57.948;12.514;2024-03-08T09:02:26;2.13;;;1.38;;
31126;SDS011;17775;57.948;12.514;2024-03-08T09:04:53;2.70;;;1.80;;
31126;SDS011;17775;57.948;12.514;2024-03-08T09:07:20;1.75;;;1.33;;
31126;SDS011;17775;57.948;12.514;2024-03-08T09:09:47;2.60;;;1.65;;
31126;SDS011;17775;57.948;12.514;2024-03-08T09:12:13;2.38;;;1.60;;
31126;SDS011;17775;57.948;12.514;2024-03-08T09:14:40;2.03;;;1.50;;
31126;SDS011;17775;57.948;12.514;2024-03-08T09:17:07;1.95;;;1.27;;
31126;SDS011;17775;57.948;12.514;2024-03-08T09:19:37;2.28;;;1.50;;
31126;SDS011;17775;57.948;12.514;2024-03-08T09:22:04;2.78;;;1.63;;
31126;SDS011;17775;57.948;12.514;2024-03-08T09:24:31;2.65;;;1.88;;
31126;SDS011;17775;57.948;12.514;2024-03-08T09:26:57;3.00;;;1.73;;
31126;SDS011;17775;57.948;12.514;2024-03-08T09:29:27;3.05;;;1.50;;
31126;SDS011;17775;57.948;12.514;2024-03-08T09:31:54;3.08;;;1.63;;
31126;SDS011;17775;57.948;12.514;2024-03-08T09:34:21;2.30;;;1.50;;
31126;SDS011;17775;57.948;12.514;2024-03-08T09:36:54;3.13;;;2.15;;
31126;SDS011;17775;57.948;12.514;2024-03-08T09:39:20;2.90;;;1.92;;
31126;SDS011;17775;57.948;12.514;2024-03-08T09:41:50;2.90;;;1.95;;
31126;SDS011;17775;57.948;12.514;2024-03-08T09:44:16;2.13;;;1.50;;
31126;SDS011;17775;57.948;12.514;2024-03-08T09:46:43;2.13;;;1.60;;
31126;SDS011;17775;57.948;12.514;2024-03-08T09:49:10;2.00;;;1.55;;
31126;SDS011;17775;57.948;12.514;2024-03-08T09:51:37;1.98;;;1.38;;
31126;SDS011;17775;57.948;12.514;2024-03-08T09:54:06;2.20;;;1.48;;
31126;SDS011;17775;57.948;12.514;2024-03-08T09:56:45;1.98;;;1.40;;
31126;SDS011;17775;57.948;12.514;2024-03-08T09:59:13;2.58;;;1.55;;
31126;SDS011;17775;57.948;12.514;2024-03-08T10:01:51;2.83;;;1.73;;
31126;SDS011;17775;57.948;12.514;2024-03-08T10:04:18;2.13;;;1.42;;
31126;SDS011;17775;57.948;12.514;2024-03-08T10:06:46;2.13;;;1.50;;
31126;SDS011;17775;57.948;12.514;2024-03-08T10:09:13;1.92;;;1.30;;
31126;SDS011;17775;57.948;12.514;2024-03-08T10:11:40;2.08;;;1.30;;
31126;SDS011;17775;57.948;12.514;2024-03-08T10:14:07;2.45;;;1.40;;
31126;SDS011;17775;57.948;12.514;2024-03-08T10:16:34;2.38;;;1.63;;
31126;SDS011;17775;57.948;12.514;2024-03-08T10:19:01;2.17;;;1.52;;
31126;SDS011;17775;57.948;12.514;2024-03-08T10:21:29;3.65;;;1.50;;
31126;SDS011;17775;57.948;12.514;2024-03-08T10:23:55;1.73;;;1.35;;
31126;SDS011;17775;57.948;12.514;2024-03-08T10:26:22;1.67;;;1.20;;
31126;SDS011;17775;57.948;12.514;2024-03-08T10:28:50;2.00;;;1.10;;
31126;SDS011;17775;57.948;12.514;2024-03-08T10:31:17;1.95;;;1.27;;
31126;SDS011;17775;57.948;12.514;2024-03-08T10:33:45;2.40;;;1.65;;
31126;SDS011;17775;57.948;12.514;2024-03-08T10:36:12;2.05;;;1.45;;
31126;SDS011;17775;57.948;12.514;2024-03-08T10:38:39;2.47;;;1.42;;
31126;SDS011;17775;57.948;12.514;2024-03-08T10:41:07;1.92;;;1.42;;
31126;SDS011;17775;57.948;12.514;2024-03-08T10:46:26;3.15;;;1.60;;
31126;SDS011;17775;57.948;12.514;2024-03-08T10:48:57;1.58;;;1.30;;
31126;SDS011;17775;57.948;12.514;2024-03-08T10:51:44;1.85;;;1.40;;
31126;SDS011;17775;57.948;12.514;2024-03-08T10:54:12;1.70;;;1.20;;
31126;SDS011;17775;57.948;12.514;2024-03-08T10:56:39;2.20;;;1.50;;
31126;SDS011;17775;57.948;12.514;2024-03-08T10:59:07;1.60;;;1.20;;
31126;SDS011;17775;57.948;12.514;2024-03-08T11:01:34;1.92;;;1.23;;
31126;SDS011;17775;57.948;12.514;2024-03-08T11:04:03;1.95;;;1.30;;
31126;SDS011;17775;57.948;12.514;2024-03-08T11:06:41;2.40;;;1.40;;
31126;SDS011;17775;57.948;12.514;2024-03-08T11:09:08;1.42;;;1.08;;
31126;SDS011;17775;57.948;12.514;2024-03-08T11:11:43;1.55;;;1.15;;
31126;SDS011;17775;57.948;12.514;2024-03-08T11:14:42;1.45;;;1.00;;
31126;SDS011;17775;57.948;12.514;2024-03-08T11:16:57;1.73;;;1.30;;
31126;SDS011;17775;57.948;12.514;2024-03-08T11:19:24;1.45;;;1.17;;
31126;SDS011;17775;57.948;12.514;2024-03-08T11:21:57;1.55;;;1.20;;
31126;SDS011;17775;57.948;12.514;2024-03-08T11:24:24;1.45;;;1.00;;
31126;SDS011;17775;57.948;12.514;2024-03-08T11:26:52;4.00;;;1.27;;
31126;SDS011;17775;57.948;12.514;2024-03-08T11:32:27;1.17;;;1.00;;
31126;SDS011;17775;57.948;12.514;2024-03-08T11:34:48;1.90;;;1.20;;
31126;SDS011;17775;57.948;12.514;2024-03-08T11:37:19;2.20;;;1.10;;
31126;SDS011;17775;57.948;12.514;2024-03-08T11:39:51;1.00;;;0.90;;
31126;SDS011;17775;57.948;12.514;2024-03-08T11:42:18;1.52;;;1.17;;
31126;SDS011;17775;57.948;12.514;2024-03-08T11:44:45;1.08;;;0.90;;
31126;SDS011;17775;57.948;12.514;2024-03-08T11:47:11;1.75;;;0.98;;
31126;SDS011;17775;57.948;12.514;2024-03-08T11:49:38;1.67;;;1.20;;
31126;SDS011;17775;57.948;12.514;2024-03-08T11:52:06;1.45;;;0.70;;
31126;SDS011;17775;57.948;12.514;2024-03-08T11:54:39;0.90;;;0.77;;
31126;SDS011;17775;57.948;12.514;2024-03-08T11:57:06;0.95;;;0.80;;
31126;SDS011;17775;57.948;12.514;2024-03-08T11:59:32;1.30;;;0.90;;
31126;SDS011;17775;57.948;12.514;2024-03-08T12:02:03;0.50;;;0.50;;
31126;SDS011;17775;57.948;12.514;2024-03-08T12:04:30;0.68;;;0.60;;
31126;SDS011;17775;57.948;12.514;2024-03-08T12:07:00;0.60;;;0.50;;
31126;SDS011;17775;57.948;12.514;2024-03-08T12:09:37;0.80;;;0.60;;
31126;SDS011;17775;57.948;12.514;2024-03-08T12:12:05;0.70;;;0.60;;
31126;SDS011;17775;57.948;12.514;2024-03-08T12:14:33;0.90;;;0.70;;
31126;SDS011;17775;57.948;12.514;2024-03-08T12:17:00;0.93;;;0.60;;
31126;SDS011;17775;57.948;12.514;2024-03-08T12:21:57;0.77;;;0.68;;
31126;SDS011;17775;57.948;12.514;2024-03-08T12:24:26;1.25;;;0.93;;
31126;SDS011;17775;57.948;12.514;2024-03-08T12:26:53;0.70;;;0.70;;
31126;SDS011;17775;57.948;12.514;2024-03-08T12:29:29;1.00;;;0.85;;
31126;SDS011;17775;57.948;12.514;2024-03-08T12:31:59;0.75;;;0.60;;
31126;SDS011;17775;57.948;12.514;2024-03-08T12:34:31;1.02;;;0.80;;
31126;SDS011;17775;57.948;12.514;2024-03-08T12:36:58;0.77;;;0.75;;
31126;SDS011;17775;57.948;12.514;2024-03-08T12:39:24;0.60;;;0.60;;
31126;SDS011;17775;57.948;12.514;2024-03-08T12:41:54;0.70;;;0.70;;
31126;SDS011;17775;57.948;12.514;2024-03-08T12:44:21;1.02;;;0.98;;
31126;SDS011;17775;57.948;12.514;2024-03-08T12:46:55;1.00;;;0.90;;
31126;SDS011;17775;57.948;12.514;2024-03-08T12:49:22;0.90;;;0.90;;
31126;SDS011;17775;57.948;12.514;2024-03-08T12:51:49;1.13;;;0.80;;
31126;SDS011;17775;57.948;12.514;2024-03-08T12:54:16;1.08;;;0.98;;
31126;SDS011;17775;57.948;12.514;2024-03-08T12:56:43;0.80;;;0.80;;
31126;SDS011;17775;57.948;12.514;2024-03-08T12:59:09;0.70;;;0.70;;
31126;SDS011;17775;57.948;12.514;2024-03-08T13:01:36;0.93;;;0.88;;
31126;SDS011;17775;57.948;12.514;2024-03-08T13:04:09;0.95;;;0.88;;
31126;SDS011;17775;57.948;12.514;2024-03-08T13:06:37;0.93;;;0.70;;
31126;SDS011;17775;57.948;12.514;2024-03-08T13:09:04;1.42;;;1.00;;
31126;SDS011;17775;57.948;12.514;2024-03-08T13:11:32;1.25;;;1.10;;
31126;SDS011;17775;57.948;12.514;2024-03-08T13:14:03;0.80;;;0.80;;
31126;SDS011;17775;57.948;12.514;2024-03-08T13:16:31;0.90;;;0.90;;
31126;SDS011;17775;57.948;12.514;2024-03-08T13:18:59;0.82;;;0.82;;
31126;SDS011;17775;57.948;12.514;2024-03-08T13:21:25;0.80;;;0.80;;
31126;SDS011;17775;57.948;12.514;2024-03-08T13:23:51;0.80;;;0.80;;
31126;SDS011;17775;57.948;12.514;2024-03-08T13:26:19;1.10;;;1.00;;
31126;SDS011;17775;57.948;12.514;2024-03-08T13:28:46;1.20;;;1.10;;
31126;SDS011;17775;57.948;12.514;2024-03-08T13:31:15;1.15;;;1.05;;
31126;SDS011;17775;57.948;12.514;2024-03-08T13:33:41;0.80;;;0.80;;
31126;SDS011;17775;57.948;12.514;2024-03-08T13:36:08;0.80;;;0.80;;
31126;SDS011;17775;57.948;12.514;2024-03-08T13:41:10;0.80;;;0.70;;
31126;SDS011;17775;57.948;12.514;2024-03-08T13:43:37;0.90;;;0.80;;
31126;SDS011;17775;57.948;12.514;2024-03-08T13:46:07;0.80;;;0.80;;
31126;SDS011;17775;57.948;12.514;2024-03-08T13:48:34;0.70;;;0.70;;
31126;SDS011;17775;57.948;12.514;2024-03-08T13:51:00;0.90;;;0.80;;
31126;SDS011;17775;57.948;12.514;2024-03-08T13:53:27;0.70;;;0.70;;
31126;SDS011;17775;57.948;12.514;2024-03-08T13:55:53;0.60;;;0.60;;
31126;SDS011;17775;57.948;12.514;2024-03-08T13:58:22;0.93;;;0.70;;
31126;SDS011;17775;57.948;12.514;2024-03-08T14:00:49;0.70;;;0.60;;
31126;SDS011;17775;57.948;12.514;2024-03-08T14:03:17;0.60;;;0.50;;
31126;SDS011;17775;57.948;12.514;2024-03-08T14:05:44;0.70;;;0.65;;
31126;SDS011;17775;57.948;12.514;2024-03-08T14:08:12;1.17;;;0.70;;
31126;SDS011;17775;57.948;12.514;2024-03-08T14:10:38;0.57;;;0.57;;
31126;SDS011;17775;57.948;12.514;2024-03-08T14:13:05;0.80;;;0.52;;
31126;SDS011;17775;57.948;12.514;2024-03-08T14:15:33;0.52;;;0.50;;
31126;SDS011;17775;57.948;12.514;2024-03-08T14:18:01;0.80;;;0.80;;
31126;SDS011;17775;57.948;12.514;2024-03-08T14:20:27;1.08;;;0.77;;
31126;SDS011;17775;57.948;12.514;2024-03-08T14:22:54;0.82;;;0.80;;
31126;SDS011;17775;57.948;12.514;2024-03-08T14:25:22;0.82;;;0.80;;
31126;SDS011;17775;57.948;12.514;2024-03-08T14:27:50;0.60;;;0.60;;
31126;SDS011;17775;57.948;12.514;2024-03-08T14:30:20;0.60;;;0.60;;
31126;SDS011;17775;57.948;12.514;2024-03-08T14:33:01;0.95;;;0.70;;
31126;SDS011;17775;57.948;12.514;2024-03-08T14:35:28;0.90;;;0.70;;
31126;SDS011;17775;57.948;12.514;2024-03-08T14:37:56;0.80;;;0.70;;
31126;SDS011;17775;57.948;12.514;2024-03-08T14:40:24;0.60;;;0.60;;
31126;SDS011;17775;57.948;12.514;2024-03-08T14:42:52;0.60;;;0.60;;
31126;SDS011;17775;57.948;12.514;2024-03-08T14:45:19;0.63;;;0.60;;
31126;SDS011;17775;57.948;12.514;2024-03-08T14:47:49;0.98;;;0.88;;
31126;SDS011;17775;57.948;12.514;2024-03-08T14:52:43;1.05;;;0.80;;
31126;SDS011;17775;57.948;12.514;2024-03-08T14:55:10;0.70;;;0.70;;